KF7K Weather Reports


Display with metric or nautical units.
time (UTC)temp
F
wind
direction
speed
MPH
gust
MPH
rain 1hr
in
rain 24hr
in
rain mn
in
humidity
%
barometer
mb
20220629063605 78 280 0.0 2.0 0.00 0.00 0.00 35 1018.5
20220629062705 77 288 0.0 2.0 0.00 0.00 0.00 36 1018.6
20220629060905 78 293 0.0 2.0 0.00 0.00 0.00 36 1018.6
20220629060006 77 283 0.0 1.0 0.00 0.00 0.00 36 1018.7
20220629055405 78 281 0.0 1.0 0.00 0.00 0.00 36 1018.9
20220629054505 79 307 0.0 1.0 0.00 0.00 0.00 35 1018.9
20220629051805 79 162 1.0 4.0 0.00 0.00 0.00 34 1019.1
20220629050905 79 11 1.0 3.0 0.00 0.00 0.00 34 1019.3
20220629050005 79 30 1.0 4.0 0.00 0.00 0.00 35 1019.7
20220629045405 79 37 1.0 6.0 0.00 0.00 0.00 35 1019.9
20220629044505 80 112 0.0 4.0 0.00 0.00 0.00 33 1020.2
20220629043605 81 284 1.0 7.0 0.00 0.00 0.00 33 1020.4
20220629042705 81 293 5.0 15.0 0.00 0.00 0.00 33 1020.1
20220629040905 83 290 2.0 8.0 0.00 0.00 0.00 29 1019.7
20220629033605 82 275 0.0 3.0 0.00 0.00 0.00 26 1018.2
20220629030905 82 332 0.0 2.0 0.00 0.00 0.00 27 1018.1
20220629030005 83 333 0.0 2.0 0.00 0.00 0.00 27 1017.9
20220629025405 83 322 0.0 2.0 0.00 0.00 0.00 26 1018.0
20220629024505 84 7 0.0 3.0 0.00 0.00 0.00 26 1018.0
20220629023605 85 278 1.0 3.0 0.00 0.00 0.00 25 1017.9
20220629022705 86 268 0.0 2.0 0.00 0.00 0.00 24 1017.8
20220629020905 90 315 0.0 3.0 0.00 0.00 0.00 22 1017.8
20220629020005 92 51 0.0 3.0 0.00 0.00 0.00 22 1017.9
20220629014505 93 307 0.0 1.0 0.00 0.00 0.00 21 1017.8
20220629013605 93 72 0.0 3.0 0.00 0.00 0.00 20 1017.8
20220629012705 93 143 0.0 2.0 0.00 0.00 0.00 22 1018.0
20220629011805 93 93 1.0 3.0 0.00 0.00 0.00 21 1018.3
20220629010905 94 142 0.0 2.0 0.00 0.00 0.00 21 1018.5
20220629010005 93 126 0.0 2.0 0.00 0.00 0.00 22 1018.5
20220629005405 92 129 0.0 2.0 0.00 0.00 0.00 21 1018.6
20220629004505 92 116 0.0 4.0 0.00 0.00 0.00 22 1018.8
20220629003605 90 278 1.0 5.0 0.00 0.00 0.00 22 1019.0
20220629002705 89 280 1.0 5.0 0.00 0.00 0.00 23 1018.9
20220629001805 88 244 0.0 2.0 0.00 0.00 0.00 24 1018.9
20220629000005 87 128 3.0 8.0 0.00 0.00 0.00 24 1018.6
20220628235405 87 130 3.0 8.0 0.00 0.00 0.00 24 1018.6
20220628234504 87 120 4.0 15.0 0.00 0.00 0.00 23 1018.6
20220628233605 88 119 4.0 13.0 0.00 0.00 0.00 22 1018.9
20220628231805 89 125 5.0 13.0 0.00 0.00 0.00 22 1019.2
20220628230905 91 122 3.0 12.0 0.00 0.00 0.00 21 1019.1
20220628224504 95 121 0.0 1.0 0.00 0.00 0.00 16 1018.8
20220628223605 96 112 0.0 3.0 0.00 0.00 0.00 17 1018.9
20220628222705 96 126 0.0 3.0 0.00 0.00 0.00 18 1019.0
20220628220905 93 286 1.0 4.0 0.00 0.00 0.00 18 1019.3
20220628220005 93 282 1.0 5.0 0.00 0.00 0.00 19 1019.5
20220628214504 96 288 0.0 3.0 0.00 0.00 0.00 16 1019.8
20220628213605 98 118 1.0 4.0 0.00 0.00 0.00 16 1019.8
20220628212705 97 170 0.0 3.0 0.00 0.00 0.00 16 1019.8
20220628211805 96 131 0.0 2.0 0.00 0.00 0.00 18 1019.8
20220628210005 93 127 1.0 4.0 0.00 0.00 0.00 18 1020.0
20220628205405 94 132 1.0 4.0 0.00 0.00 0.00 18 1020.1
20220628202704 96 126 2.0 8.0 0.00 0.00 0.00 17 1020.5
20220628201805 96 130 1.0 3.0 0.00 0.00 0.00 18 1020.6
20220628200005 95 119 2.0 6.0 0.00 0.00 0.00 16 1021.0
20220628195405 95 119 2.0 6.0 0.00 0.00 0.00 16 1021.1
20220628194505 94 124 3.0 7.0 0.00 0.00 0.00 18 1021.2
20220628193605 93 119 2.0 10.0 0.00 0.00 0.00 18 1021.4
20220628192705 91 119 3.0 8.0 0.00 0.00 0.00 20 1021.5
20220628191805 90 124 3.0 8.0 0.00 0.00 0.00 19 1021.7
20220628190904 89 145 1.0 5.0 0.00 0.00 0.00 20 1021.8
20220628190005 88 121 2.0 10.0 0.00 0.00 0.00 22 1021.8
20220628185405 87 123 3.0 7.0 0.00 0.00 0.00 22 1022.1
20220628184504 87 125 2.0 6.0 0.00 0.00 0.00 21 1022.3
20220628183605 87 124 2.0 12.0 0.00 0.00 0.00 22 1022.5
20220628182705 86 128 3.0 6.0 0.00 0.00 0.00 23 1022.7
20220628180904 85 128 0.0 5.0 0.00 0.00 0.00 27 1022.7
20220628175405 85 131 0.0 2.0 0.00 0.00 0.00 26 1023.0
20220628172705 85 130 1.0 3.0 0.00 0.00 0.00 30 1023.1
20220628170904 81 277 1.0 4.0 0.00 0.00 0.00 33 1023.2
20220628170004 80 276 2.0 5.0 0.00 0.00 0.00 32 1023.1
20220628165405 79 273 1.0 4.0 0.00 0.00 0.00 33 1023.0
20220628163605 76 130 0.0 2.0 0.00 0.00 0.00 37 1022.6
20220628161805 75 269 0.0 1.0 0.00 0.00 0.00 38 1022.6
20220628160005 74 286 0.0 2.0 0.00 0.00 0.00 36 1022.7
20220628154504 74 285 2.0 4.0 0.00 0.00 0.00 36 1022.8
20220628152705 76 276 1.0 5.0 0.00 0.00 0.00 35 1023.0
20220628151804 76 165 0.0 1.0 0.00 0.00 0.00 31 1022.8
20220628150904 76 278 0.0 2.0 0.00 0.00 0.00 31 1023.1
20220628150004 76 279 1.0 3.0 0.00 0.00 0.00 31 1023.0
20220628145405 76 283 0.0 2.0 0.00 0.00 0.00 34 1023.1
20220628144504 74 286 0.0 2.0 0.00 0.00 0.00 37 1023.2
20220628143605 71 0 0.0 0.0 0.00 0.00 0.00 45 1023.3
20220628141804 67 288 0.0 1.0 0.00 0.00 0.00 49 1023.3
20220628140906 65 288 0.0 1.0 0.00 0.00 0.00 49 1023.2
20220628140004 65 288 0.0 1.0 0.00 0.00 0.00 47 1023.2
20220628135404 65 0 0.0 0.0 0.00 0.00 0.00 47 1023.2
20220628132704 65 0 0.0 0.0 0.00 0.00 0.00 47 1023.1
20220628131804 65 0 0.0 0.0 0.00 0.00 0.00 48 1023.0
20220628130904 64 0 0.0 0.0 0.00 0.00 0.00 46 1023.0
20220628130004 64 193 0.0 1.0 0.00 0.00 0.00 44 1023.0
20220628124504 65 140 0.0 1.0 0.00 0.00 0.00 44 1022.8
20220628123604 66 255 0.0 1.0 0.00 0.00 0.00 42 1022.7
20220628122705 64 231 0.0 1.0 0.00 0.00 0.00 40 1022.7
20220628121804 63 0 0.0 0.0 0.00 0.00 0.00 44 1022.6
20220628120904 62 0 0.0 0.0 0.00 0.00 0.00 44 1022.6
20220628120004 62 0 0.0 0.0 0.00 0.00 0.00 52 1022.6
20220628115404 62 0 0.0 0.0 0.00 0.00 0.00 48 1022.6
20220628114504 61 0 0.0 0.0 0.00 0.00 0.00 46 1022.6
20220628113604 61 0 0.0 0.0 0.00 0.00 0.00 46 1022.6
20220628111804 61 0 0.0 0.0 0.00 0.00 0.00 47 1022.4
20220628110905 61 0 0.0 0.0 0.00 0.00 0.00 49 1022.4
20220628110004 62 0 0.0 0.0 0.00 0.00 0.00 50 1022.3
20220628105405 62 0 0.0 0.0 0.00 0.00 0.00 49 1022.2
20220628103604 63 0 0.0 0.0 0.00 0.00 0.00 45 1022.2
20220628102704 63 0 0.0 0.0 0.00 0.00 0.00 48 1022.3
20220628100905 65 225 0.0 1.0 0.00 0.00 0.00 41 1022.2
20220628100004 65 0 0.0 0.0 0.00 0.00 0.00 43 1022.1
20220628095404 65 0 0.0 0.0 0.00 0.00 0.00 43 1022.1
20220628093604 65 0 0.0 0.0 0.00 0.00 0.00 40 1022.1
20220628092705 65 283 0.0 1.0 0.00 0.00 0.00 39 1022.2
20220628091804 65 0 0.0 0.0 0.00 0.00 0.00 40 1022.1
20220628090004 67 0 0.0 0.0 0.00 0.00 0.00 39 1022.3
20220628085404 67 0 0.0 0.0 0.00 0.00 0.00 38 1022.2
20220628081804 68 283 0.0 1.0 0.00 0.00 0.00 38 1022.2
20220628080004 69 283 0.0 1.0 0.00 0.00 0.00 36 1022.2
20220628075405 70 283 0.0 1.0 0.00 0.00 0.00 35 1022.2
20220628074504 69 283 0.0 3.0 0.00 0.00 0.00 37 1022.2
20220628073604 69 281 1.0 3.0 0.00 0.00 0.00 37 1022.2
20220628072704 69 314 0.0 1.0 0.00 0.00 0.00 39 1022.2
20220628071804 70 339 0.0 2.0 0.00 0.00 0.00 37 1022.1
20220628070904 71 283 0.0 2.0 0.00 0.00 0.00 36 1022.2
20220628070004 72 0 0.0 0.0 0.00 0.00 0.00 33 1022.2
20220628064504 74 283 0.0 2.0 0.00 0.00 0.00 29 1022.2